Time;durP1;ratioP1;P1;durP2;ratioP2;P2;SDS_P1;SDS_P2;PMS_P1;PMS_P2;Temp;Humidity;BMP_temperature;BMP_pressure;BME280_temperature;BME280_humidity;BME280_pressure;Samples;Min_cycle;Max_cycle;Signal;HPM_P1;HPM_P2
2021/10/26 00:00:33;;;;;;;12.80;7.70;;;;;;;2.61;66.37;95893.75;5097872;27;20416;-71
2021/10/26 00:02:58;;;;;;;13.30;6.80;;;;;;;2.67;67.25;95896.94;5131672;27;20034;-71
2021/10/26 00:05:23;;;;;;;14.23;7.55;;;;;;;2.69;66.00;95894.31;5120612;27;20023;-71
2021/10/26 00:07:49;;;;;;;11.60;7.43;;;;;;;2.67;66.69;95891.81;5110950;28;20031;-71
2021/10/26 00:10:14;;;;;;;13.90;8.07;;;;;;;2.56;66.87;95875.94;5111146;27;20031;-71
2021/10/26 00:12:40;;;;;;;10.05;7.07;;;;;;;2.63;66.82;95887.66;5111205;28;20484;-71
2021/10/26 00:15:06;;;;;;;12.90;6.97;;;;;;;2.57;67.32;95882.75;5110994;28;20059;-71
2021/10/26 00:17:31;;;;;;;12.13;7.00;;;;;;;2.47;66.84;95876.25;5111100;28;20028;-71
2021/10/26 00:19:57;;;;;;;10.82;7.18;;;;;;;2.50;67.08;95881.28;5094106;27;20057;-71
2021/10/26 00:22:22;;;;;;;12.00;7.38;;;;;;;2.46;67.25;95887.41;5094048;28;20043;-71
2021/10/26 00:24:47;;;;;;;12.98;7.93;;;;;;;2.38;67.14;95881.69;5110630;28;20028;-72
2021/10/26 00:27:13;;;;;;;12.50;7.40;;;;;;;2.37;68.00;95878.31;5110973;28;20035;-71
2021/10/26 00:29:38;;;;;;;10.93;7.78;;;;;;;2.34;67.61;95878.41;5110601;28;20032;-71
2021/10/26 00:32:04;;;;;;;11.45;7.43;;;;;;;2.29;67.86;95875.16;5111850;27;20466;-71
2021/10/26 00:34:29;;;;;;;11.35;6.93;;;;;;;2.22;68.28;95871.13;5122163;27;20462;-71
2021/10/26 00:36:55;;;;;;;9.60;6.60;;;;;;;2.23;68.45;95873.63;5093523;28;20133;-71
2021/10/26 00:39:20;;;;;;;12.32;7.75;;;;;;;2.21;68.44;95875.41;5110686;28;20024;-71
2021/10/26 00:41:46;;;;;;;14.50;8.38;;;;;;;2.12;68.50;95869.75;5110422;28;20032;-71
2021/10/26 00:44:12;;;;;;;13.43;8.13;;;;;;;2.07;69.44;95857.09;5111607;27;20497;-71
2021/10/26 00:46:37;;;;;;;13.82;7.93;;;;;;;2.12;68.99;95868.03;5110459;28;20030;-71
2021/10/26 00:49:03;;;;;;;15.68;8.80;;;;;;;2.08;69.16;95856.19;5110390;28;20492;-71
2021/10/26 00:51:29;;;;;;;14.45;9.30;;;;;;;2.19;69.74;95872.06;5093891;28;20034;-71
2021/10/26 00:53:55;;;;;;;15.48;9.18;;;;;;;2.23;69.79;95858.25;5093388;28;20027;-72
2021/10/26 00:56:21;;;;;;;13.48;8.35;;;;;;;2.31;69.13;95860.53;5092669;28;20031;-71
2021/10/26 00:58:47;;;;;;;14.27;9.35;;;;;;;2.42;69.12;95857.63;5083631;28;20080;-71
2021/10/26 01:01:13;;;;;;;15.93;9.10;;;;;;;2.36;69.00;95847.56;5116587;28;20031;-72
2021/10/26 01:03:38;;;;;;;16.00;9.05;;;;;;;2.49;68.92;95853.97;5113211;27;20053;-71
2021/10/26 01:06:03;;;;;;;14.38;9.98;;;;;;;2.55;68.11;95852.91;5112445;27;20417;-71
2021/10/26 01:08:30;;;;;;;12.98;8.90;;;;;;;2.59;68.54;95855.31;5093255;28;20023;-71
2021/10/26 01:10:55;;;;;;;16.80;8.88;;;;;;;2.64;68.21;95847.44;5109904;28;20047;-71
2021/10/26 01:13:22;;;;;;;15.80;9.30;;;;;;;2.57;68.55;95830.63;5093049;28;20032;-71
2021/10/26 01:15:48;;;;;;;14.50;8.70;;;;;;;2.66;67.69;95845.66;5093107;28;20076;-71
2021/10/26 01:18:14;;;;;;;15.55;8.68;;;;;;;2.69;68.12;95846.41;5117739;28;20458;-71
2021/10/26 01:20:39;;;;;;;17.40;9.63;;;;;;;2.67;67.48;95831.94;5118082;28;20032;-71
2021/10/26 01:23:05;;;;;;;13.95;8.02;;;;;;;2.65;68.49;95839.72;5092769;28;20027;-71
2021/10/26 01:25:30;;;;;;;10.55;7.32;;;;;;;2.59;67.61;95824.53;5111277;28;20074;-71
2021/10/26 01:27:56;;;;;;;12.57;8.88;;;;;;;2.61;67.99;95833.00;5094827;28;20036;-71
2021/10/26 01:30:27;;;;;;;14.63;9.45;;;;;;;2.64;69.02;95838.03;5109896;28;20046;-71
2021/10/26 01:32:53;;;;;;;11.93;8.25;;;;;;;2.51;68.21;95811.16;5106040;28;20555;-71
2021/10/26 01:35:18;;;;;;;14.38;6.97;;;;;;;2.63;68.38;95831.22;5116337;28;20035;-72
2021/10/26 01:37:44;;;;;;;16.13;8.80;;;;;;;2.58;67.85;95827.97;5097085;28;20036;-71
2021/10/26 01:40:09;;;;;;;13.38;8.95;;;;;;;2.63;68.40;95835.53;5109924;28;20031;-71
2021/10/26 01:42:35;;;;;;;15.07;9.25;;;;;;;2.56;68.00;95814.34;5109782;28;20032;-71
2021/10/26 01:45:00;;;;;;;17.10;9.52;;;;;;;2.62;68.21;95816.72;5110926;28;20081;-71
2021/10/26 01:47:26;;;;;;;16.48;8.98;;;;;;;2.65;68.41;95814.06;5094181;28;20063;-71
2021/10/26 01:49:52;;;;;;;15.70;8.20;;;;;;;2.66;67.77;95825.97;5129666;28;20034;-71
2021/10/26 01:52:17;;;;;;;15.23;9.38;;;;;;;2.60;68.35;95813.38;5111337;28;20032;-71
2021/10/26 01:54:43;;;;;;;17.73;9.88;;;;;;;2.52;68.55;95802.56;5092838;28;20575;-71
2021/10/26 01:57:08;;;;;;;17.20;9.77;;;;;;;2.53;69.05;95805.94;5092719;28;20030;-71
2021/10/26 01:59:34;;;;;;;15.32;9.07;;;;;;;2.52;68.74;95806.84;5110870;28;20039;-71
2021/10/26 02:01:59;;;;;;;13.13;8.88;;;;;;;2.45;69.28;95806.22;5092499;28;20050;-71
2021/10/26 02:04:25;;;;;;;15.07;9.20;;;;;;;2.34;69.49;95787.78;5110778;28;20058;-72
2021/10/26 02:06:50;;;;;;;15.60;10.43;;;;;;;2.44;69.89;95797.69;5090896;27;20235;-71
2021/10/26 02:09:16;;;;;;;13.25;9.20;;;;;;;2.46;69.96;95795.06;5116797;27;20023;-71
2021/10/26 02:11:41;;;;;;;13.77;8.98;;;;;;;2.46;69.59;95798.47;5134991;27;20039;-71
2021/10/26 02:14:07;;;;;;;15.27;9.07;;;;;;;2.40;69.58;95793.56;5133826;27;20027;-71
2021/10/26 02:16:32;;;;;;;14.63;8.48;;;;;;;2.40;69.77;95788.44;5116637;27;20459;-71
2021/10/26 02:18:58;;;;;;;18.02;10.70;;;;;;;2.38;69.76;95794.50;5133718;27;20474;-71
2021/10/26 02:21:23;;;;;;;17.02;10.60;;;;;;;2.26;69.90;95772.69;5112246;28;20461;-71
2021/10/26 02:23:48;;;;;;;18.38;10.40;;;;;;;2.29;70.67;95794.84;5096139;28;20023;-71
2021/10/26 02:26:14;;;;;;;16.27;10.18;;;;;;;2.26;70.22;95789.78;5112905;28;20028;-71
2021/10/26 02:28:43;;;;;;;18.42;11.13;;;;;;;2.23;70.68;95783.06;5095891;28;20515;-71
2021/10/26 02:31:08;;;;;;;17.33;10.00;;;;;;;2.22;70.85;95787.34;5114979;27;20032;-72
2021/10/26 02:33:34;;;;;;;16.95;9.63;;;;;;;2.26;70.92;95794.91;5131689;27;20527;-71
2021/10/26 02:35:59;;;;;;;22.08;10.73;;;;;;;2.27;70.63;95786.34;5095015;28;20031;-71
2021/10/26 02:38:25;;;;;;;20.02;10.45;;;;;;;2.10;70.74;95754.44;5114039;28;20074;-71
2021/10/26 02:40:50;;;;;;;13.60;9.52;;;;;;;2.24;70.55;95785.56;5112532;28;20043;-71
2021/10/26 02:43:16;;;;;;;14.95;10.18;;;;;;;2.21;70.94;95783.09;5112713;28;20027;-72
2021/10/26 02:45:41;;;;;;;18.17;9.65;;;;;;;2.17;70.77;95776.44;5095658;28;20047;-71
2021/10/26 02:48:07;;;;;;;16.10;9.68;;;;;;;2.16;70.51;95786.72;5113794;28;20020;-71
2021/10/26 02:50:32;;;;;;;16.05;9.55;;;;;;;2.12;70.51;95783.44;5095391;28;20035;-71
2021/10/26 02:52:58;;;;;;;15.48;9.65;;;;;;;2.06;70.23;95780.22;5113658;28;20565;-71
2021/10/26 02:55:23;;;;;;;14.07;10.07;;;;;;;2.00;70.73;95774.41;5114010;27;20061;-71
2021/10/26 02:57:48;;;;;;;17.83;10.50;;;;;;;1.98;70.72;95780.50;5113534;28;20028;-71
2021/10/26 03:00:14;;;;;;;18.65;10.85;;;;;;;1.99;71.08;95775.31;5113730;28;20031;-71
2021/10/26 03:02:40;;;;;;;16.25;10.40;;;;;;;1.97;71.15;95773.69;5114109;28;20454;-71
2021/10/26 03:05:06;;;;;;;16.95;10.00;;;;;;;1.97;70.38;95766.00;5095364;28;20087;-72
2021/10/26 03:07:45;;;;;;;17.40;10.60;;;;;;;1.93;70.78;95769.56;5095119;28;20057;-71
2021/10/26 03:10:10;;;;;;;17.45;10.43;;;;;;;1.93;70.83;95767.84;5095389;28;20031;-71
2021/10/26 03:12:36;;;;;;;19.13;10.05;;;;;;;1.89;70.85;95758.56;5095352;28;20623;-71
2021/10/26 03:15:03;;;;;;;19.30;9.77;;;;;;;1.90;70.87;95765.38;5092071;28;20465;-71
2021/10/26 03:17:28;;;;;;;17.60;10.90;;;;;;;1.91;71.61;95761.09;5078654;28;20031;-71
2021/10/26 03:19:54;;;;;;;18.75;11.05;;;;;;;1.98;71.79;95762.56;5096556;28;20072;-71
2021/10/26 03:22:19;;;;;;;15.38;10.15;;;;;;;1.95;71.51;95744.69;5112083;28;20096;-71
2021/10/26 03:24:44;;;;;;;17.13;10.02;;;;;;;1.96;70.67;95762.59;5128335;27;20027;-71
2021/10/26 03:27:10;;;;;;;19.88;13.30;;;;;;;1.93;71.29;95759.31;5115309;27;20556;-71
2021/10/26 03:29:36;;;;;;;19.65;13.68;;;;;;;1.92;70.85;95752.50;5114953;27;20492;-71
2021/10/26 03:32:01;;;;;;;18.63;11.52;;;;;;;1.89;71.35;95752.59;5133658;27;20104;-71
2021/10/26 03:34:29;;;;;;;18.13;11.50;;;;;;;1.89;71.05;95750.88;5126864;27;20074;-71
2021/10/26 03:36:54;;;;;;;21.75;11.07;;;;;;;1.86;71.33;95750.16;5111750;28;20027;-71
2021/10/26 03:39:19;;;;;;;17.25;10.40;;;;;;;1.86;70.99;95750.97;5094990;28;20027;-71
2021/10/26 03:41:45;;;;;;;17.80;10.50;;;;;;;1.84;71.74;95744.22;5111779;28;20117;-72
2021/10/26 03:44:10;;;;;;;18.30;10.13;;;;;;;1.89;71.15;95747.47;5112736;27;20031;-71
2021/10/26 03:46:36;;;;;;;16.52;11.05;;;;;;;1.82;71.51;95738.34;5111410;28;20051;-71
2021/10/26 03:49:03;;;;;;;19.90;10.60;;;;;;;1.91;71.91;95743.16;5094499;28;20072;-71
2021/10/26 03:51:30;;;;;;;19.88;11.27;;;;;;;1.85;71.19;95738.25;5128035;27;20038;-71
2021/10/26 03:53:56;;;;;;;16.50;10.65;;;;;;;1.92;71.80;95744.81;5094750;28;20031;-71
2021/10/26 03:56:21;;;;;;;19.02;11.25;;;;;;;1.99;72.24;95738.59;5111254;28;20048;-71
2021/10/26 03:58:47;;;;;;;16.75;10.38;;;;;;;2.11;72.09;95745.84;5101501;28;20042;-72
2021/10/26 04:01:12;;;;;;;13.75;9.20;;;;;;;2.20;71.69;95743.00;5128254;27;20036;-71
2021/10/26 04:03:38;;;;;;;16.15;9.10;;;;;;;2.21;71.27;95741.25;5111147;28;20032;-71
2021/10/26 04:06:06;;;;;;;15.63;8.75;;;;;;;2.22;70.67;95748.03;5112250;28;20042;-71
2021/10/26 04:11:17;;;;;;;39.25;25.95;;;;;;;2.00;69.99;95733.41;5115347;27;20408;-71
2021/10/26 04:13:42;;;;;;;43.72;25.90;;;;;;;2.00;69.17;95746.22;5132737;27;20076;-71
2021/10/26 04:16:07;;;;;;;35.80;20.10;;;;;;;1.87;69.53;95739.03;5131359;27;20031;-71
2021/10/26 04:18:33;;;;;;;32.05;18.95;;;;;;;1.75;69.29;95732.56;5097102;27;20091;-71
2021/10/26 04:20:59;;;;;;;27.08;17.50;;;;;;;1.70;68.60;95743.00;5132542;27;20035;-71
2021/10/26 04:23:25;;;;;;;26.70;16.80;;;;;;;1.63;69.11;95738.94;5095042;28;20039;-72
2021/10/26 04:25:50;;;;;;;25.98;15.40;;;;;;;1.39;69.17;95714.13;5110537;28;20031;-71
2021/10/26 04:28:16;;;;;;;30.85;15.48;;;;;;;1.46;69.12;95725.88;5094744;27;20462;-71
2021/10/26 04:30:42;;;;;;;24.15;14.73;;;;;;;1.44;69.19;95737.88;5104126;27;20042;-71
2021/10/26 04:33:07;;;;;;;17.67;10.10;;;;;;;1.03;68.68;95702.47;5113945;27;20043;-71
2021/10/26 04:35:34;;;;;;;19.23;11.38;;;;;;;1.17;69.98;95740.44;5132243;27;20077;-71
2021/10/26 04:37:59;;;;;;;19.25;10.85;;;;;;;1.18;69.82;95746.41;5109135;27;20031;-71
2021/10/26 04:40:25;;;;;;;16.73;10.43;;;;;;;1.14;70.45;95743.06;5132297;27;20067;-71
2021/10/26 04:42:50;;;;;;;16.98;11.00;;;;;;;1.13;70.90;95741.41;5130908;27;20103;-71
2021/10/26 04:45:16;;;;;;;15.98;10.05;;;;;;;1.13;71.46;95738.84;5112067;27;20027;-72
2021/10/26 04:47:45;;;;;;;16.35;10.02;;;;;;;1.26;71.74;95740.16;5112814;27;20577;-71
2021/10/26 04:50:11;;;;;;;15.23;9.40;;;;;;;1.33;72.43;95746.72;5088425;27;20036;-71
2021/10/26 04:52:37;;;;;;;16.83;10.70;;;;;;;1.36;72.56;95734.72;5130891;27;20027;-71
2021/10/26 04:55:03;;;;;;;17.17;9.57;;;;;;;1.43;72.95;95744.72;5130789;27;20499;-71
2021/10/26 04:57:28;;;;;;;14.80;9.60;;;;;;;1.38;72.95;95727.84;5113737;28;20064;-71
2021/10/26 04:59:55;;;;;;;16.45;10.85;;;;;;;1.46;72.88;95733.56;5093086;28;20028;-71
2021/10/26 05:02:21;;;;;;;15.27;8.48;;;;;;;1.54;72.38;95744.38;5115512;28;20042;-71
2021/10/26 05:04:47;;;;;;;18.45;12.50;;;;;;;1.40;72.29;95720.94;5113378;27;20023;-71
2021/10/26 05:07:12;;;;;;;55.20;31.95;;;;;;;1.56;71.92;95747.72;5131610;27;20519;-71
2021/10/26 05:09:38;;;;;;;58.10;30.17;;;;;;;1.51;71.90;95735.06;5112395;28;20040;-72
2021/10/26 05:12:04;;;;;;;83.35;35.63;;;;;;;1.60;71.14;95759.53;5130655;28;20031;-70
2021/10/26 05:14:29;;;;;;;87.43;38.45;;;;;;;1.59;70.98;95754.47;5130399;28;20052;-70
2021/10/26 05:16:55;;;;;;;85.30;40.95;;;;;;;1.52;71.24;95746.16;5128045;27;20028;-72
2021/10/26 05:19:22;;;;;;;80.63;35.55;;;;;;;1.56;71.19;95747.72;5095873;28;20035;-73
2021/10/26 05:21:48;;;;;;;83.68;37.83;;;;;;;1.65;71.38;95756.84;5130748;28;20408;-73
2021/10/26 05:24:13;;;;;;;91.00;41.30;;;;;;;1.37;71.39;95723.63;5096678;28;20023;-73
2021/10/26 05:26:39;;;;;;;81.28;39.63;;;;;;;1.57;71.43;95759.66;5129888;27;20050;-73
2021/10/26 05:29:04;;;;;;;95.35;40.70;;;;;;;1.52;71.66;95746.16;5122768;27;20447;-72
2021/10/26 05:31:30;;;;;;;74.30;39.47;;;;;;;1.63;71.94;95763.72;5073423;28;20428;-73
2021/10/26 05:33:55;;;;;;;84.32;37.53;;;;;;;1.62;71.71;95762.91;5105562;28;20050;-73
2021/10/26 05:36:20;;;;;;;99.55;42.60;;;;;;;1.54;71.85;95749.50;5093334;28;20039;-72
2021/10/26 05:38:47;;;;;;;130.60;52.05;;;;;;;1.59;72.06;95752.75;5111731;28;20421;-72
2021/10/26 05:41:13;;;;;;;99.35;41.58;;;;;;;1.70;71.40;95762.63;5106895;28;20031;-72
2021/10/26 05:43:39;;;;;;;90.57;39.67;;;;;;;1.77;72.14;95762.38;5081764;28;20032;-73
2021/10/26 05:46:04;;;;;;;98.40;39.35;;;;;;;1.89;72.36;95765.41;5093391;28;20040;-72
2021/10/26 05:48:32;;;;;;;91.88;41.70;;;;;;;1.98;72.25;95770.25;5076516;28;20030;-73
2021/10/26 05:50:57;;;;;;;79.53;36.92;;;;;;;2.08;72.06;95761.34;5100755;28;20031;-73
2021/10/26 05:53:22;;;;;;;73.00;38.33;;;;;;;2.11;72.06;95745.03;5090463;28;20031;-72
2021/10/26 05:55:48;;;;;;;77.32;37.65;;;;;;;2.32;72.53;95763.97;5093024;28;20043;-72
2021/10/26 05:58:13;;;;;;;69.30;37.58;;;;;;;2.35;72.61;95761.28;5092894;28;20101;-73
2021/10/26 06:00:40;;;;;;;89.95;41.25;;;;;;;2.54;71.98;95764.03;5098244;28;20036;-72
2021/10/26 06:03:05;;;;;;;79.50;41.80;;;;;;;2.63;72.18;95763.69;5106444;28;20058;-73
2021/10/26 06:05:31;;;;;;;129.57;55.92;;;;;;;2.71;72.15;95766.81;5112711;28;20028;-72
2021/10/26 06:07:57;;;;;;;122.22;53.15;;;;;;;2.77;71.63;95761.44;5079108;28;20485;-72
2021/10/26 06:10:23;;;;;;;111.80;49.72;;;;;;;2.87;71.31;95767.06;5113282;28;20032;-72
2021/10/26 06:12:57;;;;;;;102.78;51.10;;;;;;;2.96;71.46;95761.59;5094867;28;20023;-73
2021/10/26 06:15:23;;;;;;;106.70;52.83;;;;;;;3.11;71.63;95767.88;5093019;28;20028;-73
2021/10/26 06:17:48;;;;;;;93.97;45.72;;;;;;;3.27;71.41;95775.81;5075874;28;20054;-73
2021/10/26 06:20:13;;;;;;;101.47;47.67;;;;;;;3.34;71.45;95759.25;5092776;28;20035;-73
2021/10/26 06:22:39;;;;;;;90.93;44.00;;;;;;;3.42;71.07;95764.94;5095331;28;20090;-72
2021/10/26 06:25:05;;;;;;;72.22;37.83;;;;;;;3.47;71.58;95768.16;5092730;28;20061;-74
2021/10/26 06:27:30;;;;;;;62.70;34.88;;;;;;;3.60;71.55;95776.22;5104160;28;20081;-73
2021/10/26 06:29:56;;;;;;;55.33;29.98;;;;;;;3.75;71.65;95772.19;5108383;28;20035;-72
2021/10/26 06:32:21;;;;;;;50.85;29.05;;;;;;;3.93;73.00;95770.63;5102164;28;20059;-73
2021/10/26 06:34:47;;;;;;;53.30;29.38;;;;;;;4.07;72.57;95770.00;5103883;27;20035;-74
2021/10/26 06:37:12;;;;;;;44.53;25.90;;;;;;;4.08;71.44;95759.69;5116501;27;20374;-74
2021/10/26 06:39:38;;;;;;;51.90;28.45;;;;;;;4.36;71.33;95772.19;5102458;27;20497;-74
2021/10/26 06:42:06;;;;;;;76.80;37.88;;;;;;;5.60;85.38;95761.38;5121745;27;20058;-75
2021/10/26 06:44:32;;;;;;;100.88;48.78;;;;;;;6.70;85.46;95773.09;5096937;28;20046;-73
2021/10/26 06:46:57;;;;;;;108.72;56.42;;;;;;;7.61;85.39;95769.03;5114060;28;20047;-73
2021/10/26 06:49:23;;;;;;;71.22;44.65;;;;;;;8.12;77.69;95770.50;5125915;27;20023;-74
2021/10/26 06:51:48;;;;;;;47.88;31.85;;;;;;;8.00;75.20;95765.09;5110310;27;20061;-73
2021/10/26 06:54:14;;;;;;;43.70;26.38;;;;;;;7.88;71.00;95759.78;5124614;27;20034;-72
2021/10/26 06:56:39;;;;;;;51.58;28.92;;;;;;;7.95;66.25;95771.47;5111768;28;20077;-72
2021/10/26 06:59:05;;;;;;;49.03;28.83;;;;;;;8.18;65.60;95768.38;5112773;28;20024;-71
2021/10/26 07:01:30;;;;;;;64.57;35.15;;;;;;;8.27;64.85;95770.44;5094491;27;20031;-70
2021/10/26 07:03:56;;;;;;;69.85;40.50;;;;;;;8.15;61.97;95767.72;5112847;27;20027;-70
2021/10/26 07:06:22;;;;;;;44.22;25.23;;;;;;;8.11;61.84;95771.41;5124396;27;20039;-70
2021/10/26 07:08:47;;;;;;;42.45;24.58;;;;;;;8.27;63.48;95767.84;5097574;27;20058;-70
2021/10/26 07:11:13;;;;;;;46.15;30.00;;;;;;;8.75;69.68;95762.47;5078795;27;20040;-71
2021/10/26 07:13:39;;;;;;;53.03;29.27;;;;;;;9.22;70.43;95766.50;5123186;27;20023;-72
2021/10/26 07:16:07;;;;;;;45.22;26.77;;;;;;;9.31;68.58;95760.72;5117804;27;20100;-75
2021/10/26 07:18:33;;;;;;;26.55;16.13;;;;;;;9.42;65.55;95772.16;5106441;27;20042;-76
2021/10/26 07:20:59;;;;;;;30.05;17.83;;;;;;;9.53;61.74;95765.38;5099887;27;20476;-71
2021/10/26 07:23:24;;;;;;;24.95;16.45;;;;;;;9.54;63.13;95763.63;5110255;27;20413;-72
2021/10/26 07:25:50;;;;;;;26.08;17.85;;;;;;;9.64;57.52;95767.31;5117540;27;20027;-72
2021/10/26 07:28:15;;;;;;;24.10;13.95;;;;;;;9.55;56.52;95767.88;5127057;27;20059;-73
2021/10/26 07:30:44;;;;;;;23.48;13.25;;;;;;;9.67;56.29;95761.91;5122386;27;20034;-72
2021/10/26 07:33:19;;;;;;;18.17;12.55;;;;;;;9.88;55.92;95753.66;5103702;27;20489;-71
2021/10/26 07:35:48;;;;;;;17.80;11.82;;;;;;;10.04;54.10;95747.38;5097965;27;20034;-72
2021/10/26 07:38:26;;;;;;;19.58;11.55;;;;;;;10.20;53.26;95754.97;5125034;27;20028;-71
2021/10/26 07:40:51;;;;;;;17.77;10.65;;;;;;;10.28;52.20;95742.34;5081879;27;20181;-72
2021/10/26 07:43:17;;;;;;;16.73;10.88;;;;;;;10.39;51.62;95743.38;5116592;27;20064;-72
2021/10/26 07:45:42;;;;;;;16.23;11.20;;;;;;;10.50;50.85;95746.94;5113413;27;20413;-72
2021/10/26 07:48:08;;;;;;;16.48;10.30;;;;;;;10.60;50.57;95746.31;5117532;27;20473;-73
2021/10/26 07:50:33;;;;;;;15.38;10.35;;;;;;;10.47;49.31;95736.75;5114389;27;20095;-72
2021/10/26 07:52:59;;;;;;;18.25;11.88;;;;;;;10.48;47.91;95741.00;5103534;27;20043;-72
2021/10/26 07:55:24;;;;;;;17.77;10.10;;;;;;;10.22;47.48;95736.69;5131525;27;20023;-75
2021/10/26 07:57:50;;;;;;;13.82;9.73;;;;;;;10.12;48.43;95726.09;5127037;27;20035;-74
2021/10/26 08:00:18;;;;;;;17.45;10.35;;;;;;;10.29;48.62;95733.63;5131948;27;20027;-75
2021/10/26 08:02:43;;;;;;;13.57;9.65;;;;;;;10.36;48.08;95717.63;5111443;27;20496;-72
2021/10/26 08:05:09;;;;;;;25.17;12.40;;;;;;;10.48;48.25;95729.78;5130232;27;20114;-73
2021/10/26 08:07:35;;;;;;;48.25;21.08;;;;;;;10.57;47.48;95730.94;5133294;27;20039;-72
2021/10/26 08:10:00;;;;;;;22.67;11.00;;;;;;;10.51;47.88;95724.38;5114476;27;20110;-73
2021/10/26 08:12:26;;;;;;;17.55;10.77;;;;;;;10.62;47.74;95724.47;5131044;27;20038;-72
2021/10/26 08:14:53;;;;;;;21.98;11.93;;;;;;;10.71;47.20;95723.00;5129483;27;20028;-73
2021/10/26 08:17:18;;;;;;;26.02;12.25;;;;;;;10.75;47.47;95724.44;5110544;27;20062;-71
2021/10/26 08:19:45;;;;;;;21.40;10.05;;;;;;;10.82;47.33;95727.47;5117887;27;20058;-73
2021/10/26 08:22:15;;;;;;;14.85;10.05;;;;;;;10.84;47.03;95723.84;5117380;27;20545;-73
2021/10/26 08:24:42;;;;;;;13.57;9.27;;;;;;;10.82;46.46;95720.50;5116379;27;20035;-73
2021/10/26 08:27:09;;;;;;;17.80;11.07;;;;;;;10.79;46.90;95699.94;5125715;27;20028;-75
2021/10/26 08:37:40;;;;;;;13.40;8.57;;;;;;;10.78;46.66;95707.81;5109791;27;20124;-74
2021/10/26 08:40:06;;;;;;;29.02;13.27;;;;;;;10.92;46.71;95715.47;5108483;27;20024;-75
2021/10/26 08:42:32;;;;;;;20.55;11.23;;;;;;;10.98;46.60;95709.88;5108871;28;20039;-74
2021/10/26 08:44:58;;;;;;;16.75;9.57;;;;;;;10.76;46.21;95668.94;5109993;28;20031;-74
2021/10/26 08:47:23;;;;;;;13.95;9.95;;;;;;;11.16;46.35;95715.53;5109772;28;20036;-74
2021/10/26 08:49:51;;;;;;;12.82;9.40;;;;;;;11.04;45.50;95693.84;5109892;28;20024;-75
2021/10/26 08:52:19;;;;;;;16.35;13.07;;;;;;;11.15;45.34;95722.50;5076701;28;20043;-75
2021/10/26 08:54:47;;;;;;;14.15;8.90;;;;;;;10.93;45.03;95680.75;5093373;28;20047;-74
2021/10/26 08:57:14;;;;;;;11.25;7.88;;;;;;;11.22;44.98;95720.28;5077105;28;20504;-75
2021/10/26 08:59:40;;;;;;;12.82;8.00;;;;;;;10.79;45.25;95657.50;5093998;28;20115;-75
2021/10/26 09:02:06;;;;;;;12.68;7.63;;;;;;;10.90;44.57;95665.38;5112149;28;20390;-75
2021/10/26 09:04:34;;;;;;;10.40;7.45;;;;;;;10.81;44.90;95660.81;5111855;28;20035;-74
2021/10/26 09:07:04;;;;;;;9.60;6.70;;;;;;;11.09;44.33;95709.94;5092955;28;20031;-74
2021/10/26 09:09:32;;;;;;;10.75;7.15;;;;;;;10.96;44.70;95711.75;5110350;28;20024;-75
2021/10/26 09:16:40;;;;;;;10.70;7.57;;;;;;;10.96;44.75;95711.75;5111976;28;20039;-74
2021/10/26 09:17:30;;;;;;;12.50;7.80;;;;;;;10.45;44.52;95637.31;5114022;28;20062;-75
2021/10/26 09:19:59;;;;;;;15.27;8.20;;;;;;;10.93;44.80;95706.75;5115944;28;20031;-75
2021/10/26 09:22:25;;;;;;;8.95;7.10;;;;;;;10.86;45.00;95684.72;5114590;28;20102;-77
2021/10/26 09:24:59;;;;;;;9.95;8.07;;;;;;;10.54;44.94;95632.41;5114419;28;20061;-75
2021/10/26 09:27:25;;;;;;;12.77;8.23;;;;;;;10.96;45.30;95698.75;5114555;28;20031;-75
2021/10/26 09:29:52;;;;;;;12.30;7.55;;;;;;;10.93;45.54;95688.56;5115794;28;20433;-74
2021/10/26 09:32:39;;;;;;;10.98;8.00;;;;;;;11.05;44.93;95684.25;5114801;28;20425;-74
2021/10/26 09:35:12;;;;;;;11.65;7.95;;;;;;;10.90;45.61;95688.78;5114833;28;20039;-73
2021/10/26 09:37:46;;;;;;;10.35;7.25;;;;;;;10.79;45.29;95673.94;5115716;28;20394;-74
2021/10/26 09:40:13;;;;;;;12.98;7.68;;;;;;;10.90;45.31;95675.78;5113999;28;20110;-75
2021/10/26 09:42:44;;;;;;;20.73;9.35;;;;;;;10.98;45.45;95670.88;5114904;28;20043;-71
2021/10/26 09:45:11;;;;;;;;;;;;;;;10.97;45.08;95669.19;5116093;28;20031;-73
2021/10/26 09:47:37;;;;;;;11.07;6.75;;;;;;;10.96;45.53;95659.75;5115420;28;19979;-72
2021/10/26 09:50:07;;;;;;;25.90;11.75;;;;;;;10.98;45.65;95647.47;5096849;28;20028;-73
2021/10/26 09:52:39;;;;;;;14.80;9.10;;;;;;;10.99;43.91;95636.13;5113830;28;20032;-73
2021/10/26 09:55:15;;;;;;;11.68;8.30;;;;;;;10.93;45.10;95644.38;5097068;28;20036;-72
2021/10/26 09:57:50;;;;;;;14.00;8.10;;;;;;;10.99;43.46;95646.53;5113462;28;20032;-72
2021/10/26 10:00:32;;;;;;;9.38;7.93;;;;;;;10.87;44.51;95639.63;5114800;28;20020;-72
2021/10/26 10:03:12;;;;;;;9.85;7.10;;;;;;;10.87;44.51;95635.25;5113713;28;20034;-72
2021/10/26 10:05:39;;;;;;;9.93;7.55;;;;;;;10.68;44.05;95594.13;5080882;28;20520;-72
2021/10/26 10:08:30;;;;;;;11.23;7.85;;;;;;;10.77;44.85;95610.81;5113322;28;20157;-72
2021/10/26 10:11:09;;;;;;;8.68;7.18;;;;;;;10.77;44.86;95620.41;5096189;28;20023;-72
2021/10/26 10:13:35;;;;;;;10.82;7.28;;;;;;;10.71;45.17;95596.50;5081642;28;20130;-73
2021/10/26 10:16:02;;;;;;;10.68;7.75;;;;;;;10.79;45.36;95610.72;5096115;28;20107;-72
2021/10/26 10:18:28;;;;;;;11.55;7.68;;;;;;;10.69;44.78;95603.56;5079542;28;20036;-73
2021/10/26 10:20:55;;;;;;;12.07;7.07;;;;;;;10.62;44.68;95586.78;5079310;28;20421;-72
2021/10/26 10:23:21;;;;;;;11.05;7.97;;;;;;;10.75;45.24;95594.50;5096361;28;20036;-72
2021/10/26 10:25:47;;;;;;;11.15;8.48;;;;;;;10.93;45.15;95595.81;5095987;28;20114;-73
2021/10/26 10:28:14;;;;;;;9.25;6.95;;;;;;;10.78;45.31;95562.28;5095636;28;20036;-73
2021/10/26 10:30:40;;;;;;;13.25;8.60;;;;;;;11.03;45.12;95585.59;5095938;28;20038;-72
2021/10/26 10:33:05;;;;;;;12.20;7.78;;;;;;;11.12;45.26;95576.28;5078922;28;20039;-72
2021/10/26 10:35:31;;;;;;;16.35;8.40;;;;;;;10.98;44.69;95559.09;5078936;28;20042;-72
2021/10/26 10:37:58;;;;;;;10.23;6.95;;;;;;;11.05;44.72;95555.09;5095864;28;20031;-73
2021/10/26 10:40:25;;;;;;;11.10;8.00;;;;;;;11.17;44.72;95569.81;5096096;28;20023;-72
2021/10/26 10:42:52;;;;;;;11.77;9.35;;;;;;;11.26;44.81;95546.66;5112740;28;20023;-73
2021/10/26 10:45:23;;;;;;;11.77;8.77;;;;;;;11.38;45.41;95558.75;5112698;28;20028;-73
2021/10/26 10:47:49;;;;;;;11.32;8.68;;;;;;;11.47;45.21;95550.25;5095913;28;20553;-73
2021/10/26 10:50:25;;;;;;;11.13;8.38;;;;;;;11.52;44.72;95552.53;5095728;28;20036;-73
2021/10/26 10:53:09;;;;;;;11.48;7.97;;;;;;;11.46;44.12;95538.19;5113709;28;20493;-72
2021/10/26 10:55:35;;;;;;;11.15;7.50;;;;;;;11.28;43.85;95531.75;5113781;28;21023;-73
2021/10/26 10:58:27;;;;;;;12.88;8.70;;;;;;;11.38;43.95;95538.75;5078988;28;20077;-73
2021/10/26 11:00:55;;;;;;;11.43;7.10;;;;;;;11.38;44.17;95530.13;5095593;28;20070;-73
2021/10/26 11:03:38;;;;;;;9.35;7.25;;;;;;;11.48;43.94;95531.13;5095787;28;20070;-72
2021/10/26 11:06:04;;;;;;;18.83;12.40;;;;;;;11.34;44.15;95506.13;5112258;28;20024;-73
2021/10/26 11:08:46;;;;;;;13.10;9.05;;;;;;;11.53;43.92;95523.81;5112263;28;20027;-73
2021/10/26 11:11:12;;;;;;;10.85;8.18;;;;;;;11.56;43.97;95526.16;5095484;28;20474;-73
2021/10/26 11:13:38;;;;;;;12.38;8.60;;;;;;;11.58;43.27;95513.84;5112166;28;20031;-73
2021/10/26 11:16:08;;;;;;;11.55;7.55;;;;;;;11.43;43.63;95486.41;5078405;28;20473;-73
2021/10/26 11:18:46;;;;;;;12.57;7.07;;;;;;;11.52;43.92;95511.72;5112229;28;20023;-73
2021/10/26 11:21:21;;;;;;;9.90;7.57;;;;;;;11.59;43.79;95507.72;5113380;28;20293;-72
2021/10/26 11:23:46;;;;;;;9.27;7.45;;;;;;;11.68;43.97;95500.97;5113316;27;20019;-73
2021/10/26 11:26:13;;;;;;;9.73;7.75;;;;;;;11.73;43.89;95508.41;5094803;28;20031;-73
2021/10/26 11:28:39;;;;;;;10.88;7.68;;;;;;;11.72;43.60;95485.94;5111871;28;20026;-73
2021/10/26 11:31:07;;;;;;;12.60;8.82;;;;;;;11.73;43.42;95495.41;5111707;28;20036;-73
2021/10/26 11:33:34;;;;;;;9.75;7.80;;;;;;;11.76;43.44;95487.38;5094999;28;20045;-73
2021/10/26 11:36:08;;;;;;;10.93;6.90;;;;;;;11.85;43.77;95481.47;5077902;28;20038;-73
2021/10/26 11:38:46;;;;;;;11.43;8.40;;;;;;;11.85;43.48;95468.44;5096136;28;20027;-72